Time;durP1;ratioP1;P1;durP2;ratioP2;P2;SDS_P1;SDS_P2;PMS_P1;PMS_P2;Temp;Humidity;BMP_temperature;BMP_pressure;BME280_temperature;BME280_humidity;BME280_pressure;Samples;Min_cycle;Max_cycle;Signal;HPM_P1;HPM_P2
2023/11/27 00:02:22;;;;;;;9.10;4.43;;;;;;;6.88;64.28;96796.72;4896749;28;20254;-81
2023/11/27 00:04:48;;;;;;;8.40;4.55;;;;;;;6.69;63.90;96788.31;4940902;28;20601;-81
2023/11/27 00:07:14;;;;;;;7.70;4.45;;;;;;;6.79;64.24;96795.50;4905010;28;20211;-81
2023/11/27 00:09:39;;;;;;;8.55;5.03;;;;;;;6.78;64.18;96791.34;4904017;28;20344;-81
2023/11/27 00:12:06;;;;;;;7.10;4.32;;;;;;;6.84;64.28;96786.03;4919811;28;20204;-81
2023/11/27 00:14:31;;;;;;;11.00;4.07;;;;;;;6.78;63.37;96774.00;4913545;28;20693;-81
2023/11/27 00:16:57;;;;;;;11.13;5.13;;;;;;;6.93;63.80;96771.69;4926186;28;20257;-81
2023/11/27 00:19:23;;;;;;;5.80;4.07;;;;;;;6.73;64.14;96773.91;4906666;28;20190;-81
2023/11/27 00:21:48;;;;;;;8.90;3.80;;;;;;;6.95;63.69;96763.72;4932841;28;20177;-82
2023/11/27 00:24:14;;;;;;;7.22;4.55;;;;;;;6.79;64.33;96762.66;4924954;28;20289;-81
2023/11/27 00:26:39;;;;;;;10.10;4.72;;;;;;;6.68;64.31;96759.09;4922121;28;20540;-81
2023/11/27 00:29:04;;;;;;;6.57;3.88;;;;;;;6.72;63.77;96744.66;4925011;28;20647;-81
2023/11/27 00:31:31;;;;;;;13.75;6.28;;;;;;;6.86;64.10;96750.34;4942517;28;20219;-81
2023/11/27 00:33:57;;;;;;;7.72;4.28;;;;;;;6.70;63.83;96745.91;4910587;28;20334;-81
2023/11/27 00:36:23;;;;;;;7.70;3.85;;;;;;;6.47;64.37;96750.13;4917188;28;20204;-81
2023/11/27 00:38:48;;;;;;;9.23;4.10;;;;;;;6.60;63.43;96743.91;4918641;28;20542;-81
2023/11/27 00:41:14;;;;;;;6.82;3.60;;;;;;;6.63;64.48;96740.88;4920083;28;20312;-82
2023/11/27 00:43:46;;;;;;;8.35;4.53;;;;;;;6.79;63.05;96741.94;4938579;28;20277;-81
2023/11/27 00:46:12;;;;;;;5.82;3.45;;;;;;;6.64;63.61;96744.25;4905668;28;20248;-81
2023/11/27 00:48:38;;;;;;;8.10;4.35;;;;;;;6.73;63.55;96740.28;4923112;28;20216;-81
2023/11/27 00:51:04;;;;;;;8.52;3.90;;;;;;;6.69;63.82;96734.00;4914566;28;20737;-81
2023/11/27 00:53:30;;;;;;;9.88;4.78;;;;;;;6.71;63.99;96740.50;4917070;28;20291;-81
2023/11/27 00:55:55;;;;;;;8.13;4.32;;;;;;;6.60;63.91;96745.69;4935054;28;20274;-81
2023/11/27 00:58:20;;;;;;;11.77;5.05;;;;;;;6.72;64.03;96739.50;4912758;28;20130;-80
2023/11/27 01:00:46;;;;;;;9.10;4.68;;;;;;;6.42;63.93;96731.91;4939663;28;20656;-81
2023/11/27 01:03:11;;;;;;;6.55;3.80;;;;;;;6.66;63.92;96734.44;4926111;28;20201;-81
2023/11/27 01:05:37;;;;;;;7.65;4.25;;;;;;;6.37;64.63;96731.81;4921407;28;20279;-81
2023/11/27 01:08:04;;;;;;;7.57;3.88;;;;;;;6.58;63.98;96722.69;4899837;28;20310;-80
2023/11/27 01:10:30;;;;;;;8.50;4.25;;;;;;;6.64;63.74;96728.72;4920062;28;20149;-81
2023/11/27 01:12:55;;;;;;;8.80;4.57;;;;;;;6.48;64.27;96714.72;4922637;28;20187;-81
2023/11/27 01:15:21;;;;;;;7.90;4.40;;;;;;;6.57;64.39;96716.69;4913002;28;20343;-81
2023/11/27 01:17:46;;;;;;;6.00;3.58;;;;;;;6.56;63.92;96715.13;4936608;28;20278;-81
2023/11/27 01:20:12;;;;;;;8.68;4.35;;;;;;;6.66;63.70;96713.75;4911234;28;20268;-81
2023/11/27 01:22:38;;;;;;;10.35;4.93;;;;;;;6.56;63.85;96716.91;4930302;28;20207;-81
2023/11/27 01:25:04;;;;;;;9.48;4.97;;;;;;;6.61;64.07;96696.31;4909548;28;20537;-81
2023/11/27 01:27:33;;;;;;;6.95;4.25;;;;;;;6.69;63.56;96713.28;4940366;28;20277;-81
2023/11/27 01:29:59;;;;;;;7.22;4.43;;;;;;;6.56;64.21;96689.28;4946888;28;20652;-81
2023/11/27 01:32:25;;;;;;;5.93;4.18;;;;;;;6.65;64.22;96705.22;4935304;28;20212;-81
2023/11/27 01:34:53;;;;;;;8.32;4.15;;;;;;;6.71;64.20;96703.50;4925251;28;20192;-81
2023/11/27 01:37:19;;;;;;;9.43;4.70;;;;;;;6.75;63.91;96704.59;4929394;28;20416;-81
2023/11/27 01:39:45;;;;;;;9.95;4.72;;;;;;;6.66;63.42;96701.59;4945141;28;20684;-81
2023/11/27 01:42:11;;;;;;;8.75;4.80;;;;;;;6.66;64.32;96693.06;4948041;28;20211;-81
2023/11/27 01:44:36;;;;;;;7.43;4.63;;;;;;;6.74;63.84;96690.09;4916047;28;20196;-81
2023/11/27 01:47:02;;;;;;;14.18;5.10;;;;;;;6.65;64.09;96675.94;4934186;28;20241;-81
2023/11/27 01:49:28;;;;;;;8.32;5.18;;;;;;;6.68;63.38;96667.72;4906179;28;20216;-81
2023/11/27 01:51:53;;;;;;;9.52;4.60;;;;;;;6.69;63.77;96671.91;4921422;28;20360;-81
2023/11/27 01:54:19;;;;;;;11.35;4.55;;;;;;;6.67;63.64;96674.72;4928929;28;20661;-81
2023/11/27 01:56:47;;;;;;;11.45;4.85;;;;;;;6.80;63.62;96681.41;4935736;28;20203;-81
2023/11/27 01:59:13;;;;;;;7.82;4.43;;;;;;;6.72;64.02;96666.28;4911577;28;20106;-81
2023/11/27 02:01:38;;;;;;;9.70;4.63;;;;;;;6.73;63.47;96660.06;4916957;28;20212;-81
2023/11/27 02:04:04;;;;;;;7.68;5.20;;;;;;;6.75;64.03;96651.06;4933878;28;20196;-81
2023/11/27 02:06:29;;;;;;;8.93;4.40;;;;;;;6.71;64.13;96654.34;4905680;28;20244;-82
2023/11/27 02:08:56;;;;;;;9.55;3.97;;;;;;;6.62;64.13;96650.56;4921345;28;20282;-82
2023/11/27 02:11:22;;;;;;;7.63;4.70;;;;;;;6.52;63.84;96636.41;4902359;28;20284;-82
2023/11/27 02:13:48;;;;;;;9.30;4.32;;;;;;;6.55;64.12;96640.34;4927583;28;20371;-82
2023/11/27 02:16:15;;;;;;;5.88;3.85;;;;;;;6.61;64.03;96634.25;4905765;28;20855;-82
2023/11/27 02:18:40;;;;;;;7.88;4.28;;;;;;;6.54;64.25;96634.38;4923720;28;20680;-82
2023/11/27 02:21:06;;;;;;;7.78;4.10;;;;;;;6.61;64.29;96631.66;4920833;28;20393;-82
2023/11/27 02:23:32;;;;;;;9.77;4.32;;;;;;;6.64;63.57;96633.78;4929612;28;20184;-82
2023/11/27 02:25:57;;;;;;;8.43;3.90;;;;;;;6.50;64.01;96627.34;4927390;28;20251;-82
2023/11/27 02:28:23;;;;;;;7.90;4.07;;;;;;;6.55;64.35;96628.22;4913708;28;20129;-82
2023/11/27 02:30:48;;;;;;;6.70;3.80;;;;;;;6.49;63.33;96623.16;4917923;28;20648;-82
2023/11/27 02:33:13;;;;;;;9.48;4.35;;;;;;;6.49;63.99;96610.25;4925639;28;20318;-82
2023/11/27 02:35:39;;;;;;;9.23;4.18;;;;;;;6.53;64.10;96612.13;4900067;28;20362;-82
2023/11/27 02:38:04;;;;;;;9.20;4.18;;;;;;;6.42;63.80;96612.19;4907726;28;20195;-82
2023/11/27 02:40:30;;;;;;;8.63;4.18;;;;;;;6.35;64.44;96609.75;4917873;28;20767;-82
2023/11/27 02:42:56;;;;;;;7.53;4.07;;;;;;;6.51;64.16;96603.03;4927125;28;20279;-82
2023/11/27 02:45:21;;;;;;;7.88;4.40;;;;;;;6.47;63.89;96594.94;4928913;28;20079;-82
2023/11/27 02:47:46;;;;;;;7.60;4.03;;;;;;;6.45;63.96;96598.78;4918957;28;20239;-82
2023/11/27 02:50:13;;;;;;;9.00;4.22;;;;;;;6.48;64.01;96593.16;4925244;28;20362;-82
2023/11/27 02:52:40;;;;;;;9.38;3.80;;;;;;;6.42;63.84;96583.75;4941306;28;20205;-82
2023/11/27 02:55:06;;;;;;;9.93;4.47;;;;;;;6.37;63.58;96585.22;4934599;28;20282;-82
2023/11/27 02:57:33;;;;;;;6.50;4.00;;;;;;;6.47;64.18;96592.38;4933682;28;20192;-81
2023/11/27 02:59:58;;;;;;;6.97;3.97;;;;;;;6.46;64.45;96579.66;4933631;28;20201;-82
2023/11/27 03:02:24;;;;;;;8.02;4.50;;;;;;;6.41;63.95;96572.63;4909666;28;20680;-82
2023/11/27 03:04:49;;;;;;;6.28;3.75;;;;;;;6.43;64.18;96578.34;4920051;28;20287;-82
2023/11/27 03:07:14;;;;;;;9.57;4.00;;;;;;;6.41;64.08;96572.63;4942429;28;20207;-82
2023/11/27 03:09:40;;;;;;;5.88;4.03;;;;;;;6.41;63.59;96566.66;4926348;28;20193;-82
2023/11/27 03:12:06;;;;;;;5.65;3.38;;;;;;;6.34;63.94;96571.97;4906373;28;20739;-82
2023/11/27 03:14:31;;;;;;;6.70;4.18;;;;;;;6.40;63.61;96573.63;4926967;28;20154;-81
2023/11/27 03:16:57;;;;;;;7.45;4.47;;;;;;;6.36;64.27;96557.03;4939557;28;20246;-81
2023/11/27 03:19:22;;;;;;;6.47;4.10;;;;;;;6.37;63.48;96549.03;4942192;28;20291;-81
2023/11/27 03:21:48;;;;;;;8.70;4.40;;;;;;;6.45;63.91;96550.44;4930005;28;20283;-81
2023/11/27 03:24:14;;;;;;;11.43;4.57;;;;;;;6.41;62.99;96549.34;4911678;28;20202;-81
2023/11/27 03:26:40;;;;;;;9.68;4.03;;;;;;;6.45;63.84;96557.44;4914213;28;20664;-81
2023/11/27 03:29:05;;;;;;;8.82;3.92;;;;;;;6.53;63.66;96555.25;4919277;28;20275;-81
2023/11/27 03:31:30;;;;;;;8.15;4.18;;;;;;;6.40;62.71;96547.00;4935865;28;20200;-81
2023/11/27 03:33:57;;;;;;;5.65;3.97;;;;;;;6.43;63.30;96552.47;4930645;28;20581;-81
2023/11/27 03:36:23;;;;;;;7.35;3.72;;;;;;;6.21;63.20;96531.69;4920638;28;20292;-81
2023/11/27 03:38:48;;;;;;;7.47;4.30;;;;;;;6.24;63.00;96525.25;4920375;28;20170;-81
2023/11/27 03:41:21;;;;;;;10.70;4.20;;;;;;;6.47;63.56;96542.47;4925302;28;20246;-81
2023/11/27 03:43:47;;;;;;;9.77;3.95;;;;;;;6.47;63.47;96532.88;4921064;28;20165;-81
2023/11/27 03:46:13;;;;;;;8.20;4.15;;;;;;;6.43;63.16;96528.44;4932094;28;20184;-81
2023/11/27 03:48:38;;;;;;;8.20;4.30;;;;;;;6.38;62.73;96522.16;4901094;28;20357;-81
2023/11/27 03:51:05;;;;;;;6.45;4.13;;;;;;;6.34;63.54;96517.66;4933913;28;20201;-81
2023/11/27 03:53:31;;;;;;;7.72;4.07;;;;;;;6.32;63.39;96514.53;4933492;28;20295;-81
2023/11/27 03:55:56;;;;;;;7.40;3.92;;;;;;;6.25;63.93;96503.56;4916926;28;20249;-81
2023/11/27 03:58:24;;;;;;;7.53;4.40;;;;;;;6.27;63.38;96509.28;4931758;28;20202;-81
2023/11/27 04:00:50;;;;;;;8.40;4.20;;;;;;;6.32;63.27;96507.56;4936387;28;20705;-81
2023/11/27 04:03:17;;;;;;;10.13;4.45;;;;;;;6.33;62.91;96508.34;4929173;28;20236;-81
2023/11/27 04:05:43;;;;;;;9.52;4.72;;;;;;;6.33;63.63;96498.78;4920657;28;20383;-81
2023/11/27 04:08:08;;;;;;;9.52;4.60;;;;;;;6.36;62.88;96502.72;4930342;28;20270;-81
2023/11/27 04:10:34;;;;;;;6.85;4.47;;;;;;;6.28;63.43;96485.78;4941663;28;20177;-81
2023/11/27 04:13:00;;;;;;;6.72;3.88;;;;;;;6.20;63.14;96478.41;4908308;28;20377;-81
2023/11/27 04:15:25;;;;;;;8.93;4.40;;;;;;;6.27;63.77;96480.84;4932394;28;20184;-81
2023/11/27 04:17:50;;;;;;;8.10;4.65;;;;;;;6.27;63.59;96489.41;4920127;28;20192;-81
2023/11/27 04:20:16;;;;;;;10.73;4.07;;;;;;;6.33;63.01;96483.28;4911731;28;20574;-81
2023/11/27 04:22:46;;;;;;;7.50;4.60;;;;;;;6.41;63.34;96476.94;4903490;28;20330;-81
2023/11/27 04:25:11;;;;;;;8.73;4.40;;;;;;;6.32;63.58;96480.91;4916737;28;20180;-81
2023/11/27 04:27:37;;;;;;;11.05;4.18;;;;;;;6.09;63.88;96474.88;4918208;28;20592;-81
2023/11/27 04:30:05;;;;;;;6.05;4.28;;;;;;;6.30;63.23;96488.91;4904222;28;20178;-81
2023/11/27 04:32:30;;;;;;;9.88;4.88;;;;;;;6.20;63.91;96468.06;4937324;28;20195;-81
2023/11/27 04:34:55;;;;;;;7.05;4.07;;;;;;;6.19;63.78;96467.28;4939697;28;20101;-81
2023/11/27 04:37:21;;;;;;;7.50;3.38;;;;;;;6.14;63.69;96464.63;4943896;28;20264;-82
2023/11/27 04:39:46;;;;;;;7.43;4.10;;;;;;;6.06;63.44;96471.97;4907779;28;20188;-81
2023/11/27 04:42:11;;;;;;;9.38;3.88;;;;;;;6.16;63.33;96472.91;4934913;28;20170;-81
2023/11/27 04:44:37;;;;;;;7.55;4.22;;;;;;;6.20;63.83;96468.06;4947478;28;20211;-81
2023/11/27 04:47:03;;;;;;;7.10;3.63;;;;;;;6.24;63.67;96471.75;4904968;28;20205;-81
2023/11/27 04:49:28;;;;;;;6.03;3.55;;;;;;;6.23;63.90;96464.25;4932675;28;20298;-81
2023/11/27 04:51:54;;;;;;;8.85;4.20;;;;;;;6.22;64.21;96455.72;4913904;28;20195;-81
2023/11/27 04:54:20;;;;;;;6.88;3.60;;;;;;;6.25;63.17;96457.81;4901130;28;20230;-81
2023/11/27 04:56:45;;;;;;;9.73;3.90;;;;;;;6.29;63.53;96450.34;4948291;28;20684;-81
2023/11/27 04:59:10;;;;;;;7.60;3.42;;;;;;;6.25;62.84;96439.69;4914240;28;20159;-81
2023/11/27 05:01:36;;;;;;;7.43;3.25;;;;;;;6.18;63.75;96442.44;4943729;28;20242;-81
2023/11/27 05:04:01;;;;;;;9.75;3.85;;;;;;;6.21;63.20;96443.78;4943207;28;20282;-81
2023/11/27 05:06:26;;;;;;;7.20;3.63;;;;;;;6.17;62.67;96430.56;4938315;28;20200;-81
2023/11/27 05:08:52;;;;;;;8.32;3.40;;;;;;;6.24;63.81;96433.00;4938014;28;20256;-81
2023/11/27 05:11:21;;;;;;;7.60;3.80;;;;;;;6.30;63.30;96432.03;4935867;28;20936;-81
2023/11/27 05:13:48;;;;;;;7.75;3.67;;;;;;;6.33;63.17;96436.75;4921585;28;20640;-81
2023/11/27 05:16:14;;;;;;;5.03;3.75;;;;;;;6.18;63.14;96426.94;4918248;28;20236;-81
2023/11/27 05:18:42;;;;;;;6.75;3.10;;;;;;;6.20;64.12;96431.88;4923543;28;20525;-81
2023/11/27 05:21:11;;;;;;;5.82;3.10;;;;;;;6.18;63.18;96428.75;4927885;28;20257;-80
2023/11/27 05:23:36;;;;;;;7.90;3.90;;;;;;;6.22;63.69;96427.28;4920337;28;20520;-81
2023/11/27 05:26:02;;;;;;;4.57;3.10;;;;;;;6.15;62.81;96414.50;4930906;28;20254;-81
2023/11/27 05:28:27;;;;;;;7.65;3.35;;;;;;;6.09;63.74;96406.91;4945554;28;20730;-81
2023/11/27 05:30:54;;;;;;;6.65;3.15;;;;;;;6.12;63.51;96409.03;4923156;28;20723;-81
2023/11/27 05:33:20;;;;;;;7.30;3.30;;;;;;;6.09;63.26;96405.09;4899138;28;20267;-81
2023/11/27 05:35:46;;;;;;;6.70;3.42;;;;;;;6.18;63.83;96406.25;4929214;28;20661;-82
2023/11/27 05:38:13;;;;;;;8.30;3.45;;;;;;;6.20;63.58;96400.84;4921553;28;20405;-82
2023/11/27 05:40:38;;;;;;;6.45;3.80;;;;;;;6.17;62.85;96389.19;4914069;28;20030;-81
2023/11/27 05:43:05;;;;;;;5.93;3.17;;;;;;;6.19;63.76;96399.31;4909750;28;20173;-81
2023/11/27 05:45:31;;;;;;;5.43;3.25;;;;;;;6.25;63.14;96387.22;4918813;28;20369;-82
2023/11/27 05:47:56;;;;;;;6.32;2.95;;;;;;;6.07;63.36;96376.13;4908511;28;20280;-81
2023/11/27 05:50:22;;;;;;;6.03;3.20;;;;;;;6.11;63.07;96387.53;4926154;28;20185;-82
2023/11/27 05:52:48;;;;;;;7.22;4.00;;;;;;;6.22;63.60;96382.53;4924672;28;20293;-81
2023/11/27 05:55:14;;;;;;;8.15;4.60;;;;;;;6.21;62.98;96375.81;4928349;28;20336;-82
2023/11/27 05:57:39;;;;;;;6.38;3.33;;;;;;;6.08;62.86;96380.25;4938924;28;20124;-82
2023/11/27 06:00:07;;;;;;;8.38;3.40;;;;;;;6.12;63.24;96378.00;4927215;28;20196;-81
2023/11/27 06:02:32;;;;;;;5.65;3.05;;;;;;;6.23;63.59;96371.19;4902274;28;20391;-81
2023/11/27 06:04:57;;;;;;;6.45;2.70;;;;;;;6.18;62.98;96370.06;4902996;28;20463;-81
2023/11/27 06:07:23;;;;;;;6.90;2.80;;;;;;;6.15;63.29;96378.31;4923773;28;20212;-82
2023/11/27 06:09:48;;;;;;;6.65;2.97;;;;;;;6.15;63.75;96360.22;4932196;28;20193;-81
2023/11/27 06:12:14;;;;;;;5.45;2.60;;;;;;;6.25;63.32;96363.97;4936423;28;20571;-81
2023/11/27 06:14:39;;;;;;;7.32;3.13;;;;;;;6.11;63.15;96359.13;4907549;28;20604;-81
2023/11/27 06:17:05;;;;;;;6.72;3.10;;;;;;;6.15;63.77;96360.22;4906813;28;20306;-81
2023/11/27 06:19:31;;;;;;;6.55;2.55;;;;;;;5.99;62.98;96345.50;4910226;28;20277;-82
2023/11/27 06:21:58;;;;;;;7.65;2.88;;;;;;;6.09;63.16;96352.63;4916836;28;20188;-81
2023/11/27 06:24:24;;;;;;;7.72;2.60;;;;;;;6.15;63.86;96336.97;4924707;28;20638;-82
2023/11/27 06:26:50;;;;;;;5.45;2.78;;;;;;;6.14;63.56;96343.13;4923452;28;20825;-82
2023/11/27 06:29:16;;;;;;;7.35;2.67;;;;;;;6.11;63.87;96346.19;4924825;28;20301;-81
2023/11/27 06:31:41;;;;;;;7.82;3.05;;;;;;;5.92;63.18;96342.25;4899576;28;20465;-82
2023/11/27 06:34:07;;;;;;;6.88;2.70;;;;;;;5.99;63.42;96330.00;4936368;28;20580;-82
2023/11/27 06:36:32;;;;;;;6.70;2.75;;;;;;;6.07;63.14;96334.78;4935957;28;20427;-81
2023/11/27 06:38:57;;;;;;;10.98;3.17;;;;;;;6.10;63.34;96323.16;4916988;28;20216;-82
2023/11/27 06:41:25;;;;;;;4.95;2.75;;;;;;;6.03;62.86;96322.53;4909435;28;20236;-81
2023/11/27 06:43:51;;;;;;;7.28;3.10;;;;;;;6.14;63.46;96319.09;4937532;28;20476;-82
2023/11/27 06:46:17;;;;;;;6.78;2.88;;;;;;;6.10;63.10;96316.22;4903236;28;20204;-82
2023/11/27 06:48:43;;;;;;;9.20;3.00;;;;;;;6.05;63.60;96320.50;4917334;28;20173;-81
2023/11/27 06:51:09;;;;;;;6.95;3.15;;;;;;;6.03;62.84;96307.81;4909925;28;20352;-82
2023/11/27 06:53:35;;;;;;;6.18;2.78;;;;;;;5.91;63.46;96313.06;4941751;28;20204;-82
2023/11/27 06:56:01;;;;;;;6.15;2.85;;;;;;;6.04;62.76;96304.22;4941131;28;20149;-81
2023/11/27 06:58:26;;;;;;;4.47;2.55;;;;;;;5.91;63.40;96302.72;4920426;28;20278;-81
2023/11/27 07:00:51;;;;;;;3.85;2.30;;;;;;;6.05;63.71;96302.41;4922670;28;20180;-82
2023/11/27 07:03:17;;;;;;;7.13;2.70;;;;;;;6.19;63.47;96294.09;4924218;28;20999;-82
2023/11/27 07:05:42;;;;;;;6.25;2.60;;;;;;;6.13;62.89;96276.94;4932684;28;20677;-81
2023/11/27 07:08:08;;;;;;;10.13;3.70;;;;;;;6.10;62.65;96277.44;4941110;28;20672;-81
2023/11/27 07:10:33;;;;;;;5.60;3.30;;;;;;;5.87;63.40;96280.94;4917942;28;20396;-82
2023/11/27 07:12:58;;;;;;;5.05;2.65;;;;;;;6.03;63.58;96276.81;4932723;28;20216;-82
2023/11/27 07:15:24;;;;;;;4.85;2.67;;;;;;;5.93;63.85;96266.28;4920366;28;20323;-81
2023/11/27 07:17:49;;;;;;;6.97;3.33;;;;;;;6.13;63.19;96273.59;4910540;28;20208;-82
2023/11/27 07:20:18;;;;;;;6.95;2.85;;;;;;;6.19;63.27;96270.84;4938920;28;20197;-81
2023/11/27 07:22:47;;;;;;;7.32;2.83;;;;;;;6.21;62.88;96262.06;4919258;28;20238;-82
2023/11/27 07:25:16;;;;;;;6.45;2.97;;;;;;;6.21;63.35;96267.25;4915965;28;20540;-82
2023/11/27 07:27:45;;;;;;;4.57;2.35;;;;;;;6.16;63.80;96263.56;4936948;28;20244;-82
2023/11/27 07:30:11;;;;;;;4.45;2.70;;;;;;;6.22;63.28;96263.63;4939383;28;20161;-82
2023/11/27 07:32:37;;;;;;;5.38;3.30;;;;;;;6.19;63.09;96251.97;4932180;28;20608;-82
2023/11/27 07:35:03;;;;;;;4.90;2.40;;;;;;;6.35;63.29;96253.72;4944489;28;20187;-82
2023/11/27 07:37:28;;;;;;;6.70;2.72;;;;;;;6.24;62.49;96248.66;4922768;28;20284;-81
2023/11/27 07:39:54;;;;;;;6.80;2.28;;;;;;;6.26;63.09;96234.47;4922939;28;20184;-82
2023/11/27 07:42:19;;;;;;;5.80;2.90;;;;;;;6.23;62.42;96226.44;4923048;28;20254;-81
2023/11/27 07:44:44;;;;;;;7.55;3.15;;;;;;;6.22;62.17;96223.06;4931416;28;20207;-82
2023/11/27 07:47:10;;;;;;;5.40;2.42;;;;;;;6.18;62.87;96219.38;4931644;28;20223;-81
2023/11/27 07:49:35;;;;;;;6.57;2.67;;;;;;;6.02;63.56;96218.41;4921089;28;20285;-81
2023/11/27 07:52:01;;;;;;;6.95;2.70;;;;;;;6.26;62.68;96218.19;4927300;28;20122;-81
2023/11/27 07:54:27;;;;;;;7.60;2.80;;;;;;;5.98;63.14;96218.09;4895671;28;20282;-81
2023/11/27 07:56:53;;;;;;;6.07;3.00;;;;;;;6.25;62.53;96209.66;4930609;28;20276;-80
2023/11/27 07:59:18;;;;;;;4.57;2.97;;;;;;;6.15;63.02;96212.91;4923780;28;20192;-81
2023/11/27 08:01:44;;;;;;;6.70;2.90;;;;;;;6.22;63.03;96206.75;4914878;28;20287;-81
2023/11/27 08:04:11;;;;;;;6.70;2.90;;;;;;;6.25;63.33;96198.53;4904813;28;20197;-82
2023/11/27 08:06:37;;;;;;;8.27;3.40;;;;;;;6.27;63.28;96201.66;4900091;28;20216;-80
2023/11/27 08:09:04;;;;;;;6.40;3.25;;;;;;;6.38;63.02;96196.38;4897651;28;20158;-81
2023/11/27 08:11:33;;;;;;;6.70;2.70;;;;;;;6.38;62.54;96191.19;4932670;28;20265;-80
2023/11/27 08:13:59;;;;;;;5.82;2.67;;;;;;;6.33;63.12;96187.78;4930776;28;20170;-80
2023/11/27 08:16:25;;;;;;;7.82;2.72;;;;;;;6.34;62.03;96181.56;4939995;28;20352;-81
2023/11/27 08:18:51;;;;;;;4.53;2.63;;;;;;;6.33;62.63;96187.78;4934869;28;20294;-80
2023/11/27 08:21:17;;;;;;;6.82;2.80;;;;;;;6.39;62.08;96181.63;4915514;28;20234;-80
2023/11/27 08:23:42;;;;;;;5.40;2.95;;;;;;;6.41;62.38;96183.97;4929503;28;20211;-81
2023/11/27 08:26:08;;;;;;;3.97;2.40;;;;;;;6.51;62.89;96195.22;4918174;28;20169;-81
2023/11/27 08:28:34;;;;;;;5.72;2.55;;;;;;;6.48;62.71;96185.38;4927680;28;20215;-80
2023/11/27 08:30:59;;;;;;;6.70;2.83;;;;;;;6.45;61.88;96185.84;4928089;28;20285;-81
2023/11/27 08:33:27;;;;;;;6.18;2.40;;;;;;;6.42;62.55;96175.97;4935876;28;20702;-80
2023/11/27 08:35:53;;;;;;;5.18;2.70;;;;;;;6.22;62.61;96175.75;4917118;28;20250;-80
2023/11/27 08:38:19;;;;;;;5.25;3.05;;;;;;;6.37;62.73;96179.31;4917425;28;20722;-80
2023/11/27 08:40:44;;;;;;;6.28;3.35;;;;;;;6.15;63.09;96166.38;4913265;28;20277;-81
2023/11/27 08:43:10;;;;;;;7.28;2.97;;;;;;;6.27;62.98;96168.03;4921481;28;20694;-81
2023/11/27 08:45:35;;;;;;;5.70;2.80;;;;;;;6.36;62.46;96153.69;4900914;28;20655;-82
2023/11/27 08:48:01;;;;;;;7.32;3.03;;;;;;;6.29;63.29;96150.50;4935810;28;20173;-81
2023/11/27 08:50:29;;;;;;;6.00;2.80;;;;;;;6.14;63.69;96141.56;4915944;28;20562;-81
2023/11/27 08:52:57;;;;;;;8.70;2.78;;;;;;;6.45;62.69;96146.28;4905285;28;20223;-81
2023/11/27 08:55:28;;;;;;;8.13;2.85;;;;;;;6.47;63.67;96146.81;4918631;28;20715;-80
2023/11/27 08:57:54;;;;;;;5.50;2.60;;;;;;;6.40;63.30;96141.81;4919903;28;20326;-80
2023/11/27 09:00:20;;;;;;;7.18;3.13;;;;;;;6.37;62.56;96131.97;4901447;28;20280;-80
2023/11/27 09:02:46;;;;;;;6.88;2.88;;;;;;;6.47;63.07;96131.31;4917668;28;20326;-80
2023/11/27 09:05:12;;;;;;;9.15;3.88;;;;;;;6.40;62.64;96118.56;4928947;28;20247;-80
2023/11/27 09:07:38;;;;;;;5.60;3.50;;;;;;;6.32;62.46;96111.22;4916037;28;20331;-81
2023/11/27 09:10:04;;;;;;;7.15;3.25;;;;;;;6.42;62.46;96111.34;4922055;28;20293;-81
2023/11/27 09:12:31;;;;;;;7.63;2.85;;;;;;;6.23;63.18;96110.13;4922993;28;20169;-81
2023/11/27 09:14:57;;;;;;;9.77;3.58;;;;;;;6.00;64.07;96104.19;4901165;28;20702;-80
2023/11/27 09:17:22;;;;;;;5.40;3.03;;;;;;;6.19;63.40;96094.31;4897221;28;20360;-81
2023/11/27 09:19:48;;;;;;;6.57;2.85;;;;;;;6.18;63.98;96090.94;4925268;28;20645;-81
2023/11/27 09:22:14;;;;;;;5.95;3.03;;;;;;;5.95;64.39;96086.78;4942992;28;20636;-80
2023/11/27 09:24:42;;;;;;;6.60;3.05;;;;;;;5.96;64.29;96079.84;4914681;28;20693;-81
2023/11/27 09:27:07;;;;;;;8.55;3.47;;;;;;;6.07;64.07;96086.69;4924434;28;20191;-80
2023/11/27 09:29:33;;;;;;;5.80;3.45;;;;;;;6.01;64.12;96074.72;4945937;28;20582;-80
2023/11/27 09:31:59;;;;;;;7.50;3.38;;;;;;;6.10;63.70;96069.91;4926918;28;20200;-81
2023/11/27 09:34:27;;;;;;;6.10;2.63;;;;;;;5.96;63.88;96069.50;4911285;28;20181;-80
2023/11/27 09:36:53;;;;;;;5.68;2.42;;;;;;;6.01;63.88;96066.97;4913543;28;20659;-80
2023/11/27 09:39:19;;;;;;;6.57;3.08;;;;;;;5.81;63.92;96065.72;4912975;28;20690;-80
2023/11/27 09:41:44;;;;;;;5.35;2.40;;;;;;;5.67;64.99;96061.91;4946842;28;20484;-81
2023/11/27 09:44:10;;;;;;;5.03;3.03;;;;;;;5.89;64.32;96066.31;4911643;28;20682;-80
2023/11/27 09:46:38;;;;;;;6.20;2.90;;;;;;;5.79;64.03;96054.84;4934114;28;20178;-81
2023/11/27 09:49:08;;;;;;;5.53;2.80;;;;;;;6.02;63.95;96047.88;4941449;28;20348;-80
2023/11/27 09:51:35;;;;;;;6.35;2.70;;;;;;;6.05;63.94;96056.94;4910143;28;20287;-81
2023/11/27 09:54:03;;;;;;;4.00;2.50;;;;;;;5.91;63.67;96046.97;4938214;28;20283;-80
2023/11/27 09:56:29;;;;;;;5.97;2.58;;;;;;;5.71;64.75;96057.06;4941186;28;20202;-81
2023/11/27 09:58:59;;;;;;;5.78;3.22;;;;;;;5.86;64.64;96048.69;4926528;28;20207;-80
2023/11/27 10:01:29;;;;;;;7.30;2.92;;;;;;;5.86;64.10;96033.19;4927337;28;20212;-81
2023/11/27 10:04:04;;;;;;;5.53;3.58;;;;;;;5.78;64.78;96032.59;4933141;28;20238;-80
2023/11/27 10:06:32;;;;;;;6.20;2.90;;;;;;;5.72;64.16;96023.22;4946419;28;20536;-80
2023/11/27 10:09:04;;;;;;;6.43;3.25;;;;;;;5.73;64.36;96004.13;4945699;28;20332;-81
2023/11/27 10:11:33;;;;;;;8.23;3.05;;;;;;;5.81;64.67;96001.13;4914960;28;20171;-81
2023/11/27 10:14:08;;;;;;;4.75;3.30;;;;;;;5.53;64.79;95993.59;4904763;28;20196;-81
2023/11/27 10:16:35;;;;;;;6.38;3.20;;;;;;;5.67;65.40;95981.84;4931143;28;20199;-81
2023/11/27 10:19:07;;;;;;;6.60;3.22;;;;;;;5.87;64.65;95981.28;4938979;28;20687;-80
2023/11/27 10:21:36;;;;;;;5.40;3.90;;;;;;;5.88;64.21;95971.72;4946245;28;20256;-80
2023/11/27 10:24:08;;;;;;;4.72;3.05;;;;;;;5.88;64.22;95951.06;4945729;28;20285;-81
2023/11/27 10:26:34;;;;;;;6.65;2.95;;;;;;;5.72;64.70;95953.50;4932381;28;20380;-81
2023/11/27 10:28:59;;;;;;;6.40;3.85;;;;;;;5.89;64.73;95944.88;4921922;28;20720;-80
2023/11/27 10:31:26;;;;;;;8.18;3.10;;;;;;;5.92;65.04;95940.00;4935884;28;20306;-81
2023/11/27 10:33:52;;;;;;;7.15;3.28;;;;;;;5.47;65.23;95917.09;4922113;28;20205;-82
2023/11/27 10:36:23;;;;;;;5.60;2.92;;;;;;;5.43;65.49;95930.50;4920516;28;20180;-81
2023/11/27 10:39:25;;;;;;;4.85;3.10;;;;;;;5.62;65.51;95906.91;4910175;28;20373;-82
2023/11/27 10:41:55;;;;;;;8.00;3.17;;;;;;;5.81;64.67;95908.16;4943558;28;20833;-82
2023/11/27 10:44:22;;;;;;;3.72;2.33;;;;;;;5.47;64.96;95899.00;4897735;28;20204;-81
2023/11/27 10:46:48;;;;;;;8.57;3.53;;;;;;;5.30;65.20;95892.16;4933024;28;20706;-81
2023/11/27 10:49:16;;;;;;;5.72;2.78;;;;;;;4.90;66.42;95889.88;4927370;28;20195;-81
2023/11/27 10:51:47;;;;;;;6.32;2.65;;;;;;;5.43;65.23;95872.91;4925733;28;20521;-83
2023/11/27 10:54:14;;;;;;;7.70;2.90;;;;;;;5.22;65.64;95874.50;4929131;28;20751;-82
2023/11/27 10:56:46;;;;;;;6.05;2.80;;;;;;;5.36;65.32;95862.00;4929726;28;20403;-81
2023/11/27 10:59:13;;;;;;;5.38;2.70;;;;;;;5.44;65.73;95869.31;4909746;28;20668;-82
2023/11/27 11:01:41;;;;;;;6.20;2.88;;;;;;;5.31;65.38;95857.56;4926855;28;20216;-83
2023/11/27 11:04:30;;;;;;;6.63;3.00;;;;;;;5.34;65.41;95851.16;4941031;28;20169;-82
2023/11/27 11:06:57;;;;;;;3.85;2.65;;;;;;;5.37;65.23;95845.50;4931074;28;20167;-82
2023/11/27 11:09:26;;;;;;;5.15;3.10;;;;;;;5.32;65.51;95842.88;4933001;28;20277;-82
2023/11/27 11:11:55;;;;;;;5.07;3.25;;;;;;;5.14;66.48;95842.19;4932898;28;20426;-82
2023/11/27 11:14:24;;;;;;;4.32;3.10;;;;;;;5.23;66.07;95845.88;4928547;28;20277;-81
2023/11/27 11:17:16;;;;;;;5.50;3.08;;;;;;;4.98;67.22;95819.81;4912222;28;20631;-82
2023/11/27 11:19:54;;;;;;;5.05;2.90;;;;;;;5.11;66.62;95823.84;4901010;28;20311;-82
2023/11/27 11:22:47;;;;;;;5.57;2.90;;;;;;;5.48;64.95;95818.75;4941630;28;20254;-81
2023/11/27 11:25:22;;;;;;;5.78;2.97;;;;;;;5.18;65.68;95806.38;4935058;28;20276;-83
2023/11/27 11:28:05;;;;;;;5.22;3.08;;;;;;;5.48;64.90;95807.66;4930493;28;20254;-81
2023/11/27 11:30:38;;;;;;;5.32;3.25;;;;;;;5.50;64.92;95793.50;4921180;28;20181;-81
2023/11/27 11:33:07;;;;;;;4.13;2.95;;;;;;;5.19;65.93;95789.84;4928204;28;20260;-81
2023/11/27 11:35:36;;;;;;;3.95;2.58;;;;;;;5.34;65.37;95782.25;4923397;28;20231;-81
2023/11/27 11:38:15;;;;;;;5.13;3.20;;;;;;;5.27;65.92;95775.72;4924832;28;20209;-84
2023/11/27 11:40:47;;;;;;;5.03;2.65;;;;;;;5.32;65.85;95780.94;4922384;28;20188;-82